createdAt,value
2018-02-12T00:00:55.323Z,1.60
2018-02-12T00:03:23.710Z,1.60
2018-02-12T00:05:52.051Z,1.60
2018-02-12T00:08:22.281Z,1.50
2018-02-12T00:10:50.584Z,1.50
2018-02-12T00:13:18.887Z,1.50
2018-02-12T00:15:47.165Z,1.50
2018-02-12T00:18:15.486Z,1.50
2018-02-12T00:20:43.770Z,1.50
2018-02-12T00:23:12.056Z,1.50
2018-02-12T00:25:40.639Z,1.40
2018-02-12T00:28:08.932Z,1.40
2018-02-12T00:30:37.215Z,1.50
2018-02-12T00:33:05.526Z,1.40
2018-02-12T00:35:33.803Z,1.40
2018-02-12T00:38:04.041Z,1.40
2018-02-12T00:40:32.384Z,1.40
2018-02-12T00:43:00.679Z,1.40
2018-02-12T00:45:28.966Z,1.40
2018-02-12T00:47:57.291Z,1.40
2018-02-12T00:50:25.584Z,1.40
2018-02-12T00:52:54.266Z,1.40
2018-02-12T00:55:22.541Z,1.30
2018-02-12T00:57:52.793Z,1.30
2018-02-12T01:00:23.054Z,1.30
2018-02-12T01:02:51.359Z,1.30
2018-02-12T01:05:20.471Z,1.20
2018-02-12T01:07:48.754Z,1.30
2018-02-12T01:10:17.866Z,1.40
2018-02-12T01:12:46.165Z,1.40
2018-02-12T01:15:14.533Z,1.30
2018-02-12T01:17:43.690Z,1.30
2018-02-12T01:20:11.990Z,1.30
2018-02-12T01:22:40.297Z,1.30
2018-02-12T01:25:08.581Z,1.30
2018-02-12T01:27:36.874Z,1.30
2018-02-12T01:30:06.190Z,1.40
2018-02-12T01:32:34.468Z,1.30
2018-02-12T01:35:02.782Z,1.30
2018-02-12T01:37:31.838Z,1.30
2018-02-12T01:40:00.229Z,1.30
2018-02-12T01:42:28.558Z,1.30
2018-02-12T01:45:11.537Z,1.30
2018-02-12T01:47:39.838Z,1.20
2018-02-12T01:50:20.151Z,1.30
2018-02-12T01:52:48.578Z,1.30
2018-02-12T01:55:16.853Z,1.50
2018-02-12T01:57:45.190Z,1.50
2018-02-12T02:00:13.510Z,1.50
2018-02-12T02:02:42.587Z,1.50
2018-02-12T02:05:10.914Z,1.50
2018-02-12T02:07:39.995Z,1.50
2018-02-12T02:10:08.290Z,1.50
2018-02-12T02:12:36.663Z,1.50
2018-02-12T02:15:04.946Z,1.50
2018-02-12T02:17:33.286Z,1.50
2018-02-12T02:20:07.634Z,1.50
2018-02-12T02:22:40.602Z,1.50
2018-02-12T02:25:10.598Z,1.50
2018-02-12T02:27:38.902Z,1.50
2018-02-12T02:30:07.256Z,1.50
2018-02-12T02:32:35.558Z,1.50
2018-02-12T02:35:04.063Z,1.50
2018-02-12T02:37:32.330Z,1.50
2018-02-12T02:40:00.660Z,1.50
2018-02-12T02:42:28.982Z,1.50
2018-02-12T02:44:57.269Z,1.60
2018-02-12T02:47:25.611Z,1.60
2018-02-12T02:49:53.895Z,1.60
2018-02-12T02:52:23.262Z,1.50
2018-02-12T02:54:51.670Z,1.50
2018-02-12T02:57:23.548Z,1.40
2018-02-12T02:59:51.887Z,1.30
2018-02-12T03:02:20.198Z,1.30
2018-02-12T03:04:48.478Z,1.20
2018-02-12T03:07:16.787Z,1.20
2018-02-12T03:09:45.104Z,1.20
2018-02-12T03:12:13.537Z,1.20
2018-02-12T03:14:41.811Z,1.10
2018-02-12T03:17:10.090Z,1.20
2018-02-12T03:19:44.317Z,1.10
2018-02-12T03:22:12.620Z,1.10
2018-02-12T03:24:41.320Z,1.10
2018-02-12T03:27:09.613Z,1.10
2018-02-12T03:29:37.908Z,1.00
2018-02-12T03:32:07.005Z,0.90
2018-02-12T03:34:35.349Z,0.90
2018-02-12T03:37:03.652Z,0.90
2018-02-12T03:39:32.934Z,0.80
2018-02-12T03:42:01.277Z,0.80
2018-02-12T03:44:29.871Z,0.80
2018-02-12T03:46:58.173Z,0.80
2018-02-12T03:49:26.502Z,0.80
2018-02-12T03:51:54.860Z,0.80
2018-02-12T03:54:23.978Z,0.90
2018-02-12T03:56:53.036Z,1.00
2018-02-12T03:59:22.541Z,1.00
2018-02-12T04:01:50.824Z,1.00
2018-02-12T04:04:19.146Z,1.00
2018-02-12T04:06:47.473Z,1.10
2018-02-12T04:09:15.776Z,1.10
2018-02-12T04:11:44.096Z,1.10
2018-02-12T04:14:12.534Z,1.10
2018-02-12T04:16:41.593Z,1.10
2018-02-12T04:19:09.882Z,1.10
2018-02-12T04:21:38.197Z,1.10
2018-02-12T04:24:06.493Z,1.20
2018-02-12T04:26:34.871Z,1.20
2018-02-12T04:29:03.142Z,1.30
2018-02-12T04:31:31.434Z,1.20
2018-02-12T04:33:59.784Z,1.20
2018-02-12T04:36:28.111Z,1.20
2018-02-12T04:38:56.390Z,1.20
2018-02-12T04:41:24.709Z,1.10
2018-02-12T04:43:53.027Z,1.20
2018-02-12T04:46:22.124Z,1.30
2018-02-12T04:48:54.622Z,1.30
2018-02-12T04:51:23.660Z,1.20
2018-02-12T04:53:55.370Z,1.20
2018-02-12T04:56:23.658Z,1.20
2018-02-12T04:58:52.013Z,1.30
2018-02-12T05:01:20.313Z,1.40
2018-02-12T05:03:48.620Z,1.40
2018-02-12T05:06:16.914Z,1.40
2018-02-12T05:08:50.036Z,1.40
2018-02-12T05:11:18.372Z,1.40
2018-02-12T05:13:46.657Z,1.40
2018-02-12T05:16:15.124Z,1.40
2018-02-12T05:18:43.418Z,1.40
2018-02-12T05:21:11.724Z,1.50
2018-02-12T05:23:40.074Z,1.50
2018-02-12T05:26:09.313Z,1.40
2018-02-12T05:28:37.598Z,1.50
2018-02-12T05:31:05.920Z,1.40
2018-02-12T05:33:34.263Z,1.50
2018-02-12T05:36:03.358Z,1.40
2018-02-12T05:38:39.593Z,1.40
2018-02-12T05:41:07.885Z,1.40
2018-02-12T05:43:36.178Z,1.40
2018-02-12T05:46:04.454Z,1.40
2018-02-12T05:48:32.765Z,1.50
2018-02-12T05:51:01.055Z,1.50
2018-02-12T05:53:29.419Z,1.40
2018-02-12T05:55:57.746Z,1.50
2018-02-12T05:58:26.855Z,1.50
2018-02-12T06:00:55.180Z,1.50
2018-02-12T06:03:23.789Z,1.50
2018-02-12T06:05:52.077Z,1.50
2018-02-12T06:08:20.375Z,1.50
2018-02-12T06:10:48.808Z,1.60
2018-02-12T06:13:17.866Z,1.50
2018-02-12T06:15:46.153Z,1.50
2018-02-12T06:18:26.481Z,1.50
2018-02-12T06:20:54.765Z,1.50
2018-02-12T06:23:23.113Z,1.50
2018-02-12T06:25:52.515Z,1.50
2018-02-12T06:28:20.812Z,1.50
2018-02-12T06:30:49.102Z,1.40
2018-02-12T06:33:17.481Z,1.40
2018-02-12T06:35:45.774Z,1.40
2018-02-12T06:38:14.106Z,1.40
2018-02-12T06:40:42.393Z,1.40
2018-02-12T06:43:11.061Z,1.30
2018-02-12T06:45:39.364Z,1.30
2018-02-12T06:48:08.697Z,1.20
2018-02-12T06:50:37.070Z,1.20
2018-02-12T06:53:06.431Z,1.20
2018-02-12T06:55:34.773Z,1.20
2018-02-12T06:58:03.149Z,1.10
2018-02-12T07:03:42.590Z,1.10
2018-02-12T07:06:10.966Z,1.10
2018-02-12T07:11:39.800Z,1.20
2018-02-12T07:14:08.418Z,1.20
2018-02-12T07:19:56.923Z,1.20
2018-02-12T07:22:25.226Z,1.20
2018-02-12T07:24:53.552Z,1.30
2018-02-12T07:27:21.842Z,1.30
2018-02-12T07:29:50.190Z,1.40
2018-02-12T07:32:27.218Z,1.50
2018-02-12T07:34:55.531Z,1.60
2018-02-12T07:37:27.416Z,1.60
2018-02-12T07:42:39.842Z,1.50
2018-02-12T07:48:18.614Z,1.70
2018-02-12T07:50:46.910Z,1.80
2018-02-12T07:53:15.188Z,1.70
2018-02-12T07:55:43.572Z,1.70
2018-02-12T14:25:13.771Z,4.90
2018-02-12T14:27:42.812Z,5.00
2018-02-12T14:33:21.711Z,5.70
2018-02-12T14:35:50.318Z,5.90
2018-02-12T14:38:30.517Z,5.80
2018-02-12T14:40:58.870Z,5.80
2018-02-12T14:43:27.202Z,5.80
2018-02-12T14:45:55.500Z,5.60
2018-02-12T14:48:23.840Z,5.50
2018-02-12T14:50:52.162Z,5.30
2018-02-12T14:53:20.484Z,5.10
2018-02-12T14:56:01.264Z,5.10
2018-02-12T14:58:33.290Z,4.90
2018-02-12T15:01:18.400Z,4.70
2018-02-12T15:03:46.748Z,4.60
2018-02-12T15:06:21.629Z,4.60
2018-02-12T15:08:50.784Z,4.70
2018-02-12T15:11:19.082Z,4.70
2018-02-12T15:14:00.025Z,4.70
2018-02-12T15:16:29.790Z,4.70
2018-02-12T15:19:28.307Z,4.60
2018-02-12T15:21:56.672Z,4.60
2018-02-12T15:24:24.966Z,4.30
2018-02-12T15:26:53.854Z,4.30
2018-02-12T15:29:22.565Z,4.30
2018-02-12T15:31:50.883Z,4.20
2018-02-12T15:34:19.247Z,4.20
2018-02-12T15:36:47.552Z,4.10
2018-02-12T15:42:26.114Z,4.00
2018-02-12T15:45:13.621Z,4.10
2018-02-12T15:50:40.961Z,4.00
2018-02-12T15:53:09.383Z,4.00
2018-02-12T15:56:22.123Z,3.90
2018-02-12T15:58:50.727Z,3.80
2018-02-12T16:04:31.157Z,3.80
2018-02-12T16:06:59.521Z,3.80
2018-02-12T16:09:44.864Z,3.90
2018-02-12T16:12:34.869Z,3.70
2018-02-12T16:15:03.207Z,3.70
2018-02-12T16:26:51.981Z,3.60
2018-02-12T16:31:56.598Z,3.50
2018-02-12T16:34:25.777Z,3.40
2018-02-12T16:36:54.085Z,3.40
2018-02-12T16:39:22.584Z,3.30
2018-02-12T16:41:51.912Z,3.30
2018-02-12T16:44:20.456Z,3.10
2018-02-12T16:46:48.878Z,3.00
2018-02-12T16:49:17.212Z,3.20
2018-02-12T16:51:45.564Z,3.20
2018-02-12T16:54:13.988Z,3.00
2018-02-12T16:56:42.355Z,3.10
2018-02-12T16:59:10.677Z,3.00
2018-02-12T17:01:39.067Z,2.90
2018-02-12T17:04:07.474Z,2.80
2018-02-12T17:06:35.999Z,2.80
2018-02-12T17:09:04.347Z,2.70
2018-02-12T17:11:32.666Z,2.60
2018-02-12T17:14:01.226Z,2.70
2018-02-12T17:16:29.538Z,2.70
2018-02-12T17:18:57.923Z,2.70
2018-02-12T17:21:26.468Z,2.70
2018-02-12T17:23:54.968Z,2.60
2018-02-12T17:26:23.402Z,2.50
2018-02-12T17:28:51.762Z,2.50
2018-02-12T17:31:25.944Z,2.40
2018-02-12T17:33:54.363Z,2.50
2018-02-12T17:36:22.726Z,2.50
2018-02-12T17:38:51.144Z,2.50
2018-02-12T17:41:19.633Z,2.50
2018-02-12T17:43:48.064Z,2.40
2018-02-12T17:46:17.018Z,2.40
2018-02-12T17:48:46.210Z,2.30
2018-02-12T17:51:14.641Z,2.30
2018-02-12T17:53:43.063Z,2.30
2018-02-12T17:56:18.648Z,2.20
2018-02-12T17:58:47.136Z,2.20
2018-02-12T18:01:15.451Z,2.20
2018-02-12T18:03:45.813Z,2.10
2018-02-12T18:06:14.211Z,2.10
2018-02-12T18:08:42.547Z,2.00
2018-02-12T18:11:10.928Z,2.00
2018-02-12T18:13:39.211Z,2.10
2018-02-12T18:16:07.550Z,2.00
2018-02-12T18:18:35.843Z,2.00
2018-02-12T18:21:04.264Z,2.00
2018-02-12T18:23:32.587Z,1.90
2018-02-12T18:26:00.902Z,2.00
2018-02-12T18:28:29.287Z,1.90
2018-02-12T18:30:57.582Z,1.90
2018-02-12T18:33:25.924Z,1.90
2018-02-12T18:35:54.683Z,1.90
2018-02-12T18:38:22.996Z,1.90
2018-02-12T18:40:51.294Z,1.80
2018-02-12T18:43:20.088Z,1.80
2018-02-12T18:45:48.850Z,1.70
2018-02-12T18:48:17.191Z,1.70
2018-02-12T18:50:45.498Z,1.60
2018-02-12T18:53:13.798Z,1.60
2018-02-12T18:55:43.064Z,1.60
2018-02-12T18:58:12.171Z,1.50
2018-02-12T19:00:40.539Z,1.50
2018-02-12T19:03:09.023Z,1.50
2018-02-12T19:05:52.553Z,1.50
2018-02-12T19:08:23.014Z,1.40
2018-02-12T19:10:51.383Z,1.40
2018-02-12T19:13:21.049Z,1.40
2018-02-12T19:15:49.441Z,1.40
2018-02-12T19:18:17.758Z,1.50
2018-02-12T19:20:46.422Z,1.60
2018-02-12T19:23:14.816Z,1.50
2018-02-12T19:25:48.232Z,1.50
2018-02-12T19:28:18.763Z,1.40
2018-02-12T19:30:47.248Z,1.40
2018-02-12T19:33:15.575Z,1.40
2018-02-12T19:35:45.522Z,1.40
2018-02-12T19:38:14.000Z,1.30
2018-02-12T19:40:43.359Z,1.40
2018-02-12T19:43:12.270Z,1.40
2018-02-12T19:45:40.610Z,1.40
2018-02-12T19:48:09.391Z,1.40
2018-02-12T19:50:38.784Z,1.30
2018-02-12T19:53:07.170Z,1.30
2018-02-12T19:55:39.540Z,1.20
2018-02-12T19:58:08.106Z,1.20
2018-02-12T20:00:36.588Z,1.20
2018-02-12T20:03:04.936Z,1.20
2018-02-12T20:05:33.434Z,1.20
2018-02-12T20:08:01.890Z,1.30
2018-02-12T20:10:39.498Z,1.40
2018-02-12T20:13:09.776Z,1.30
2018-02-12T20:15:40.582Z,1.20
2018-02-12T20:18:09.817Z,1.10
2018-02-12T20:20:38.489Z,1.10
2018-02-12T20:23:08.349Z,1.00
2018-02-12T20:25:37.975Z,1.00
2018-02-12T20:28:06.318Z,1.00
2018-02-12T20:30:34.710Z,1.00
2018-02-12T20:33:03.141Z,1.00
2018-02-12T20:35:38.624Z,0.90
2018-02-12T20:38:08.209Z,0.90
2018-02-12T20:40:36.523Z,0.90
2018-02-12T20:43:05.168Z,0.90
2018-02-12T20:45:33.649Z,1.00
2018-02-12T20:48:02.175Z,1.00
2018-02-12T20:50:30.614Z,0.90
2018-02-12T20:53:00.388Z,0.80
2018-02-12T20:55:29.114Z,0.90
2018-02-12T20:57:57.568Z,0.80
2018-02-12T21:00:25.908Z,0.80
2018-02-12T21:02:54.246Z,0.80
2018-02-12T21:05:27.572Z,0.90
2018-02-12T21:07:55.931Z,0.80
2018-02-12T21:10:24.259Z,0.80
2018-02-12T21:12:57.861Z,0.80
2018-02-12T21:15:26.432Z,0.70
2018-02-12T21:18:08.280Z,0.70
2018-02-12T21:20:36.825Z,0.60
2018-02-12T21:23:05.116Z,0.60
2018-02-12T21:25:33.855Z,0.40
2018-02-12T21:28:02.208Z,0.50
2018-02-12T21:30:30.631Z,0.40
2018-02-12T21:32:59.132Z,0.40
2018-02-12T21:35:28.212Z,0.20
2018-02-12T21:37:56.491Z,0.20
2018-02-12T21:40:24.847Z,0.20
2018-02-12T21:42:54.128Z,0.20
2018-02-12T21:45:22.549Z,0.10
2018-02-12T21:47:50.842Z,0.10
2018-02-12T21:50:19.123Z,0.00
2018-02-12T21:52:51.778Z,0.00
2018-02-12T21:55:20.860Z,0.00
2018-02-12T21:57:49.190Z,-0.10
2018-02-12T22:00:17.477Z,-0.10
2018-02-12T22:02:45.762Z,-0.10
2018-02-12T22:05:14.852Z,-0.20
2018-02-12T22:07:43.282Z,-0.20
2018-02-12T22:10:11.577Z,-0.10
2018-02-12T22:12:39.870Z,-0.10
2018-02-12T22:15:08.495Z,-0.10
2018-02-12T22:17:36.786Z,0.00
2018-02-12T22:20:05.066Z,-0.20
2018-02-12T22:22:33.487Z,-0.20
2018-02-12T22:25:01.770Z,-0.30
2018-02-12T22:27:30.055Z,-0.30
2018-02-12T22:29:59.355Z,-0.30
2018-02-12T22:32:27.658Z,-0.20
2018-02-12T22:34:56.772Z,-0.30
2018-02-12T22:37:25.107Z,-0.30
2018-02-12T22:39:53.417Z,-0.30
2018-02-12T22:42:21.843Z,-0.40
2018-02-12T22:44:50.136Z,-0.40
2018-02-12T22:47:19.178Z,-0.30
2018-02-12T22:49:48.442Z,-0.40
2018-02-12T22:52:16.731Z,-0.40
2018-02-12T22:54:45.053Z,-0.50
2018-02-12T22:57:13.406Z,-0.50
2018-02-12T22:59:41.705Z,-0.50
2018-02-12T23:02:10.795Z,-0.60
2018-02-12T23:04:39.075Z,-0.60
2018-02-12T23:07:07.397Z,-0.60
2018-02-12T23:09:44.769Z,-0.60
2018-02-12T23:12:13.342Z,-0.60
2018-02-12T23:14:41.670Z,-0.60
2018-02-12T23:17:21.738Z,-0.50
2018-02-12T23:19:50.806Z,-0.50
2018-02-12T23:22:19.130Z,-0.60
2018-02-12T23:24:48.394Z,-0.60
2018-02-12T23:27:16.678Z,-0.50
2018-02-12T23:29:44.995Z,-0.50
2018-02-12T23:32:13.278Z,-0.40
2018-02-12T23:34:41.631Z,-0.40
2018-02-12T23:37:09.922Z,-0.40
2018-02-12T23:39:38.219Z,-0.40
2018-02-12T23:42:06.562Z,-0.40
2018-02-12T23:44:35.643Z,-0.50
2018-02-12T23:47:03.994Z,-0.50
2018-02-12T23:49:32.318Z,-0.60
2018-02-12T23:52:00.613Z,-0.60
2018-02-12T23:54:28.963Z,-0.60
2018-02-12T23:56:57.323Z,-0.50
2018-02-12T23:59:26.384Z,-0.50
